sensor_id;sensor_type;location;lat;lon;timestamp;temperature;humidity
26982;DHT22;14533;50.848;4.380;2022-10-31T00:01:17;16.20;99.90
26982;DHT22;14533;50.848;4.380;2022-10-31T00:03:42;16.20;99.90
26982;DHT22;14533;50.848;4.380;2022-10-31T00:06:08;16.00;99.90
26982;DHT22;14533;50.848;4.380;2022-10-31T00:08:34;16.10;99.90
26982;DHT22;14533;50.848;4.380;2022-10-31T00:10:59;16.10;99.90
26982;DHT22;14533;50.848;4.380;2022-10-31T00:13:25;16.00;99.90
26982;DHT22;14533;50.848;4.380;2022-10-31T00:15:50;16.00;99.90
26982;DHT22;14533;50.848;4.380;2022-10-31T00:18:16;16.00;99.90
26982;DHT22;14533;50.848;4.380;2022-10-31T00:20:41;15.90;99.90
26982;DHT22;14533;50.848;4.380;2022-10-31T00:23:07;15.90;99.90
26982;DHT22;14533;50.848;4.380;2022-10-31T00:25:36;16.00;99.90
26982;DHT22;14533;50.848;4.380;2022-10-31T00:28:03;16.00;99.90
26982;DHT22;14533;50.848;4.380;2022-10-31T00:30:29;16.00;99.90
26982;DHT22;14533;50.848;4.380;2022-10-31T00:32:55;16.00;99.90
26982;DHT22;14533;50.848;4.380;2022-10-31T00:35:20;15.90;99.90
26982;DHT22;14533;50.848;4.380;2022-10-31T00:37:46;15.90;99.90
26982;DHT22;14533;50.848;4.380;2022-10-31T00:40:11;15.90;99.90
26982;DHT22;14533;50.848;4.380;2022-10-31T00:42:39;15.90;99.90
26982;DHT22;14533;50.848;4.380;2022-10-31T00:45:05;15.90;99.90
26982;DHT22;14533;50.848;4.380;2022-10-31T00:47:31;15.90;99.90
26982;DHT22;14533;50.848;4.380;2022-10-31T00:49:56;15.90;99.90
26982;DHT22;14533;50.848;4.380;2022-10-31T00:52:22;16.00;99.90
26982;DHT22;14533;50.848;4.380;2022-10-31T00:54:47;16.00;99.90
26982;DHT22;14533;50.848;4.380;2022-10-31T00:57:13;15.90;99.90
26982;DHT22;14533;50.848;4.380;2022-10-31T00:59:38;15.90;99.90
26982;DHT22;14533;50.848;4.380;2022-10-31T01:02:04;16.10;99.90
26982;DHT22;14533;50.848;4.380;2022-10-31T01:04:29;16.20;99.90
26982;DHT22;14533;50.848;4.380;2022-10-31T01:06:55;16.10;99.90
26982;DHT22;14533;50.848;4.380;2022-10-31T01:09:20;16.00;99.90
26982;DHT22;14533;50.848;4.380;2022-10-31T01:11:46;15.80;99.90
26982;DHT22;14533;50.848;4.380;2022-10-31T01:14:12;15.80;99.90
26982;DHT22;14533;50.848;4.380;2022-10-31T01:16:37;15.70;99.90
26982;DHT22;14533;50.848;4.380;2022-10-31T01:19:03;15.70;99.90
26982;DHT22;14533;50.848;4.380;2022-10-31T01:21:29;15.70;99.90
26982;DHT22;14533;50.848;4.380;2022-10-31T01:23:56;15.80;99.90
26982;DHT22;14533;50.848;4.380;2022-10-31T01:26:24;15.80;99.90
26982;DHT22;14533;50.848;4.380;2022-10-31T01:28:55;15.80;99.90
26982;DHT22;14533;50.848;4.380;2022-10-31T01:31:26;15.70;99.90
26982;DHT22;14533;50.848;4.380;2022-10-31T01:33:53;15.80;99.90
26982;DHT22;14533;50.848;4.380;2022-10-31T01:38:50;15.70;99.90
26982;DHT22;14533;50.848;4.380;2022-10-31T01:41:19;15.80;99.90
26982;DHT22;14533;50.848;4.380;2022-10-31T01:43:54;15.90;99.90
26982;DHT22;14533;50.848;4.380;2022-10-31T01:46:36;16.10;99.90
26982;DHT22;14533;50.848;4.380;2022-10-31T01:49:08;15.90;99.90
26982;DHT22;14533;50.848;4.380;2022-10-31T01:51:38;15.80;99.90
26982;DHT22;14533;50.848;4.380;2022-10-31T01:54:09;15.70;99.90
26982;DHT22;14533;50.848;4.380;2022-10-31T01:56:39;15.70;99.90
26982;DHT22;14533;50.848;4.380;2022-10-31T01:59:09;15.60;99.90
26982;DHT22;14533;50.848;4.380;2022-10-31T02:01:37;15.60;99.90
26982;DHT22;14533;50.848;4.380;2022-10-31T02:04:03;15.60;99.90
26982;DHT22;14533;50.848;4.380;2022-10-31T02:09:19;15.50;99.90
26982;DHT22;14533;50.848;4.380;2022-10-31T02:11:51;15.50;99.90
26982;DHT22;14533;50.848;4.380;2022-10-31T02:14:17;15.50;99.90
26982;DHT22;14533;50.848;4.380;2022-10-31T02:16:44;15.40;99.90
26982;DHT22;14533;50.848;4.380;2022-10-31T02:19:15;15.40;99.90
26982;DHT22;14533;50.848;4.380;2022-10-31T02:30:50;15.60;99.90
26982;DHT22;14533;50.848;4.380;2022-10-31T02:39:06;15.50;99.90
26982;DHT22;14533;50.848;4.380;2022-10-31T02:41:51;15.40;99.90
26982;DHT22;14533;50.848;4.380;2022-10-31T02:44:28;15.40;99.90
26982;DHT22;14533;50.848;4.380;2022-10-31T02:47:14;15.40;99.90
26982;DHT22;14533;50.848;4.380;2022-10-31T02:49:59;15.40;99.90
26982;DHT22;14533;50.848;4.380;2022-10-31T02:52:31;15.40;99.90
26982;DHT22;14533;50.848;4.380;2022-10-31T02:54:58;15.50;99.90
26982;DHT22;14533;50.848;4.380;2022-10-31T02:57:31;15.50;99.90
26982;DHT22;14533;50.848;4.380;2022-10-31T03:00:06;15.40;99.90
26982;DHT22;14533;50.848;4.380;2022-10-31T03:08:55;15.10;99.90
26982;DHT22;14533;50.848;4.380;2022-10-31T03:11:29;15.10;99.90
26982;DHT22;14533;50.848;4.380;2022-10-31T03:13:58;15.30;99.90
26982;DHT22;14533;50.848;4.380;2022-10-31T03:19:02;15.30;99.90
26982;DHT22;14533;50.848;4.380;2022-10-31T03:21:50;15.30;99.90
26982;DHT22;14533;50.848;4.380;2022-10-31T03:24:19;15.20;99.90
26982;DHT22;14533;50.848;4.380;2022-10-31T03:26:51;15.20;99.90
26982;DHT22;14533;50.848;4.380;2022-10-31T03:29:21;15.20;99.90
26982;DHT22;14533;50.848;4.380;2022-10-31T03:31:59;15.20;99.90
26982;DHT22;14533;50.848;4.380;2022-10-31T03:34:26;15.20;99.90
26982;DHT22;14533;50.848;4.380;2022-10-31T03:36:56;15.10;99.90
26982;DHT22;14533;50.848;4.380;2022-10-31T03:39:23;15.10;99.90
26982;DHT22;14533;50.848;4.380;2022-10-31T03:42:06;15.10;99.90
26982;DHT22;14533;50.848;4.380;2022-10-31T03:44:35;15.00;99.90
26982;DHT22;14533;50.848;4.380;2022-10-31T03:47:01;15.00;99.90
26982;DHT22;14533;50.848;4.380;2022-10-31T03:49:29;15.00;99.90
26982;DHT22;14533;50.848;4.380;2022-10-31T03:52:02;15.00;99.90
26982;DHT22;14533;50.848;4.380;2022-10-31T03:54:40;15.00;99.90
26982;DHT22;14533;50.848;4.380;2022-10-31T03:59:44;15.00;99.90
26982;DHT22;14533;50.848;4.380;2022-10-31T04:02:16;14.90;99.90
26982;DHT22;14533;50.848;4.380;2022-10-31T04:04:44;15.00;99.90
26982;DHT22;14533;50.848;4.380;2022-10-31T04:07:11;15.10;99.90
26982;DHT22;14533;50.848;4.380;2022-10-31T04:09:39;15.00;99.90
26982;DHT22;14533;50.848;4.380;2022-10-31T04:12:08;14.80;99.90
26982;DHT22;14533;50.848;4.380;2022-10-31T04:14:36;14.70;99.90
26982;DHT22;14533;50.848;4.380;2022-10-31T04:17:07;14.60;99.90
26982;DHT22;14533;50.848;4.380;2022-10-31T04:19:33;14.60;99.90
26982;DHT22;14533;50.848;4.380;2022-10-31T04:21:59;14.40;99.90
26982;DHT22;14533;50.848;4.380;2022-10-31T04:24:25;14.30;99.90
26982;DHT22;14533;50.848;4.380;2022-10-31T04:26:51;14.20;99.90
26982;DHT22;14533;50.848;4.380;2022-10-31T04:29:16;14.20;99.90
26982;DHT22;14533;50.848;4.380;2022-10-31T04:31:42;14.10;99.90
26982;DHT22;14533;50.848;4.380;2022-10-31T04:34:07;14.10;99.90
26982;DHT22;14533;50.848;4.380;2022-10-31T04:36:33;14.00;99.90
26982;DHT22;14533;50.848;4.380;2022-10-31T04:38:59;14.10;99.90
26982;DHT22;14533;50.848;4.380;2022-10-31T04:41:24;14.00;99.90
26982;DHT22;14533;50.848;4.380;2022-10-31T04:43:50;14.10;99.90
26982;DHT22;14533;50.848;4.380;2022-10-31T04:46:16;14.00;99.90
26982;DHT22;14533;50.848;4.380;2022-10-31T04:48:41;14.00;99.90
26982;DHT22;14533;50.848;4.380;2022-10-31T04:51:07;14.10;99.90
26982;DHT22;14533;50.848;4.380;2022-10-31T04:53:33;14.00;99.90
26982;DHT22;14533;50.848;4.380;2022-10-31T04:55:59;14.00;99.90
26982;DHT22;14533;50.848;4.380;2022-10-31T04:58:26;13.90;99.90
26982;DHT22;14533;50.848;4.380;2022-10-31T05:00:55;14.00;99.90
26982;DHT22;14533;50.848;4.380;2022-10-31T05:03:21;14.10;99.90
26982;DHT22;14533;50.848;4.380;2022-10-31T05:05:47;13.90;99.90
26982;DHT22;14533;50.848;4.380;2022-10-31T05:08:13;13.80;99.90
26982;DHT22;14533;50.848;4.380;2022-10-31T05:10:39;13.80;99.90
26982;DHT22;14533;50.848;4.380;2022-10-31T05:13:05;13.80;99.90
26982;DHT22;14533;50.848;4.380;2022-10-31T05:15:31;13.70;99.90
26982;DHT22;14533;50.848;4.380;2022-10-31T05:17:57;13.70;99.90
26982;DHT22;14533;50.848;4.380;2022-10-31T05:20:25;13.80;99.90
26982;DHT22;14533;50.848;4.380;2022-10-31T05:22:53;13.80;99.90
26982;DHT22;14533;50.848;4.380;2022-10-31T05:25:21;13.90;99.90
26982;DHT22;14533;50.848;4.380;2022-10-31T05:27:48;13.90;99.90
26982;DHT22;14533;50.848;4.380;2022-10-31T05:30:20;13.90;99.90
26982;DHT22;14533;50.848;4.380;2022-10-31T05:32:48;14.00;99.90
26982;DHT22;14533;50.848;4.380;2022-10-31T05:35:16;14.00;99.90
26982;DHT22;14533;50.848;4.380;2022-10-31T05:37:42;13.90;99.90
26982;DHT22;14533;50.848;4.380;2022-10-31T05:40:10;13.90;99.90
26982;DHT22;14533;50.848;4.380;2022-10-31T05:42:42;13.80;99.90
26982;DHT22;14533;50.848;4.380;2022-10-31T05:45:10;13.90;99.90
26982;DHT22;14533;50.848;4.380;2022-10-31T05:47:36;13.90;99.90
26982;DHT22;14533;50.848;4.380;2022-10-31T05:50:02;13.90;99.90
26982;DHT22;14533;50.848;4.380;2022-10-31T05:52:28;13.80;99.90
26982;DHT22;14533;50.848;4.380;2022-10-31T05:54:54;13.90;99.90
26982;DHT22;14533;50.848;4.380;2022-10-31T05:57:20;14.00;99.90
26982;DHT22;14533;50.848;4.380;2022-10-31T05:59:45;14.00;99.90
26982;DHT22;14533;50.848;4.380;2022-10-31T06:02:11;14.10;99.90
26982;DHT22;14533;50.848;4.380;2022-10-31T06:04:36;14.00;99.90
26982;DHT22;14533;50.848;4.380;2022-10-31T06:07:03;14.00;99.90
26982;DHT22;14533;50.848;4.380;2022-10-31T06:09:28;14.00;99.90
26982;DHT22;14533;50.848;4.380;2022-10-31T06:11:55;13.90;99.90
26982;DHT22;14533;50.848;4.380;2022-10-31T06:14:21;13.90;99.90
26982;DHT22;14533;50.848;4.380;2022-10-31T06:16:46;13.90;99.90
26982;DHT22;14533;50.848;4.380;2022-10-31T06:19:12;13.90;99.90
26982;DHT22;14533;50.848;4.380;2022-10-31T06:21:37;13.90;99.90
26982;DHT22;14533;50.848;4.380;2022-10-31T06:24:03;14.00;99.90
26982;DHT22;14533;50.848;4.380;2022-10-31T06:26:29;14.00;99.90
26982;DHT22;14533;50.848;4.380;2022-10-31T06:28:55;14.00;99.90
26982;DHT22;14533;50.848;4.380;2022-10-31T06:31:20;14.00;99.90
26982;DHT22;14533;50.848;4.380;2022-10-31T06:33:46;14.00;99.90
26982;DHT22;14533;50.848;4.380;2022-10-31T06:36:12;14.10;99.90
26982;DHT22;14533;50.848;4.380;2022-10-31T06:38:37;14.00;99.90
26982;DHT22;14533;50.848;4.380;2022-10-31T06:41:04;14.00;99.90
26982;DHT22;14533;50.848;4.380;2022-10-31T06:43:30;14.00;99.90
26982;DHT22;14533;50.848;4.380;2022-10-31T06:46:02;13.90;99.90
26982;DHT22;14533;50.848;4.380;2022-10-31T06:48:28;13.90;99.90
26982;DHT22;14533;50.848;4.380;2022-10-31T06:50:56;13.90;99.90
26982;DHT22;14533;50.848;4.380;2022-10-31T06:53:22;14.00;99.90
26982;DHT22;14533;50.848;4.380;2022-10-31T06:55:47;14.00;99.90
26982;DHT22;14533;50.848;4.380;2022-10-31T06:58:13;14.20;99.90
26982;DHT22;14533;50.848;4.380;2022-10-31T07:00:40;14.20;99.90
26982;DHT22;14533;50.848;4.380;2022-10-31T07:03:09;14.30;99.90
26982;DHT22;14533;50.848;4.380;2022-10-31T07:05:35;14.40;99.90
26982;DHT22;14533;50.848;4.380;2022-10-31T07:08:03;14.40;99.90
26982;DHT22;14533;50.848;4.380;2022-10-31T07:10:32;14.30;99.90
26982;DHT22;14533;50.848;4.380;2022-10-31T07:13:00;14.30;99.90
26982;DHT22;14533;50.848;4.380;2022-10-31T07:15:28;14.20;99.90
26982;DHT22;14533;50.848;4.380;2022-10-31T07:17:59;14.20;99.90
26982;DHT22;14533;50.848;4.380;2022-10-31T07:20:26;14.30;99.90
26982;DHT22;14533;50.848;4.380;2022-10-31T07:22:52;14.30;99.90
26982;DHT22;14533;50.848;4.380;2022-10-31T07:25:18;14.40;99.90
26982;DHT22;14533;50.848;4.380;2022-10-31T07:27:43;14.40;99.90
26982;DHT22;14533;50.848;4.380;2022-10-31T07:30:11;14.30;99.90
26982;DHT22;14533;50.848;4.380;2022-10-31T07:32:42;14.30;99.90
26982;DHT22;14533;50.848;4.380;2022-10-31T07:35:09;14.40;99.90
26982;DHT22;14533;50.848;4.380;2022-10-31T07:37:35;14.20;99.90
26982;DHT22;14533;50.848;4.380;2022-10-31T07:40:02;14.20;99.90
26982;DHT22;14533;50.848;4.380;2022-10-31T07:42:28;14.20;99.90
26982;DHT22;14533;50.848;4.380;2022-10-31T07:44:53;14.20;99.90
26982;DHT22;14533;50.848;4.380;2022-10-31T07:47:20;14.20;99.90
26982;DHT22;14533;50.848;4.380;2022-10-31T07:49:45;14.30;99.90
26982;DHT22;14533;50.848;4.380;2022-10-31T07:52:11;14.50;99.90
26982;DHT22;14533;50.848;4.380;2022-10-31T07:54:37;14.30;99.90
26982;DHT22;14533;50.848;4.380;2022-10-31T07:57:02;14.40;99.90
26982;DHT22;14533;50.848;4.380;2022-10-31T07:59:28;14.40;99.90
26982;DHT22;14533;50.848;4.380;2022-10-31T08:01:53;14.40;99.90
26982;DHT22;14533;50.848;4.380;2022-10-31T08:04:19;14.50;99.90
26982;DHT22;14533;50.848;4.380;2022-10-31T08:06:45;14.50;99.90
26982;DHT22;14533;50.848;4.380;2022-10-31T08:09:10;14.60;99.90
26982;DHT22;14533;50.848;4.380;2022-10-31T08:11:36;14.60;99.90
26982;DHT22;14533;50.848;4.380;2022-10-31T08:14:01;14.60;99.90
26982;DHT22;14533;50.848;4.380;2022-10-31T08:16:27;14.70;99.90
26982;DHT22;14533;50.848;4.380;2022-10-31T08:18:53;14.70;99.90
26982;DHT22;14533;50.848;4.380;2022-10-31T08:21:21;14.80;99.90
26982;DHT22;14533;50.848;4.380;2022-10-31T08:23:46;14.90;99.90
26982;DHT22;14533;50.848;4.380;2022-10-31T08:26:12;15.00;99.90
26982;DHT22;14533;50.848;4.380;2022-10-31T08:28:38;15.00;99.90
26982;DHT22;14533;50.848;4.380;2022-10-31T08:31:08;15.10;99.90
26982;DHT22;14533;50.848;4.380;2022-10-31T08:33:35;15.20;99.90
26982;DHT22;14533;50.848;4.380;2022-10-31T08:36:01;15.30;99.90
26982;DHT22;14533;50.848;4.380;2022-10-31T08:38:27;15.40;99.90
26982;DHT22;14533;50.848;4.380;2022-10-31T08:40:53;15.40;99.90
26982;DHT22;14533;50.848;4.380;2022-10-31T08:43:21;15.40;99.90
26982;DHT22;14533;50.848;4.380;2022-10-31T08:45:51;15.50;99.90
26982;DHT22;14533;50.848;4.380;2022-10-31T08:48:20;15.60;99.90
26982;DHT22;14533;50.848;4.380;2022-10-31T08:50:46;15.70;99.90
26982;DHT22;14533;50.848;4.380;2022-10-31T08:53:19;15.80;99.90
26982;DHT22;14533;50.848;4.380;2022-10-31T08:55:46;15.80;99.90
26982;DHT22;14533;50.848;4.380;2022-10-31T08:58:15;15.90;99.90
26982;DHT22;14533;50.848;4.380;2022-10-31T09:00:41;15.90;99.90
26982;DHT22;14533;50.848;4.380;2022-10-31T09:03:20;15.80;99.90
26982;DHT22;14533;50.848;4.380;2022-10-31T09:05:46;15.80;99.90
26982;DHT22;14533;50.848;4.380;2022-10-31T09:08:12;15.70;99.90
26982;DHT22;14533;50.848;4.380;2022-10-31T09:10:39;15.80;99.90
26982;DHT22;14533;50.848;4.380;2022-10-31T09:13:19;15.90;99.90
26982;DHT22;14533;50.848;4.380;2022-10-31T09:15:47;15.70;99.90
26982;DHT22;14533;50.848;4.380;2022-10-31T09:18:14;15.70;99.90
26982;DHT22;14533;50.848;4.380;2022-10-31T09:20:41;15.60;99.90
26982;DHT22;14533;50.848;4.380;2022-10-31T09:23:13;15.50;99.90
26982;DHT22;14533;50.848;4.380;2022-10-31T09:25:39;15.40;99.90
26982;DHT22;14533;50.848;4.380;2022-10-31T09:28:08;15.50;99.90
26982;DHT22;14533;50.848;4.380;2022-10-31T09:30:37;15.50;99.90
26982;DHT22;14533;50.848;4.380;2022-10-31T09:33:13;15.50;99.90
26982;DHT22;14533;50.848;4.380;2022-10-31T09:35:40;15.50;99.90
26982;DHT22;14533;50.848;4.380;2022-10-31T09:38:17;15.70;99.90
26982;DHT22;14533;50.848;4.380;2022-10-31T09:41:07;15.60;99.90
26982;DHT22;14533;50.848;4.380;2022-10-31T09:43:43;15.60;99.90
26982;DHT22;14533;50.848;4.380;2022-10-31T09:52:15;15.60;99.90
26982;DHT22;14533;50.848;4.380;2022-10-31T09:55:08;15.70;99.90
26982;DHT22;14533;50.848;4.380;2022-10-31T09:57:36;15.60;99.90
26982;DHT22;14533;50.848;4.380;2022-10-31T10:00:06;15.80;99.90
26982;DHT22;14533;50.848;4.380;2022-10-31T10:02:35;15.80;99.90
26982;DHT22;14533;50.848;4.380;2022-10-31T10:05:05;15.90;99.90
26982;DHT22;14533;50.848;4.380;2022-10-31T10:10:22;16.10;99.90
26982;DHT22;14533;50.848;4.380;2022-10-31T10:16:32;16.20;99.90
26982;DHT22;14533;50.848;4.380;2022-10-31T10:22:11;16.10;99.90
26982;DHT22;14533;50.848;4.380;2022-10-31T10:24:45;16.30;99.90
26982;DHT22;14533;50.848;4.380;2022-10-31T10:30:21;16.40;99.90
26982;DHT22;14533;50.848;4.380;2022-10-31T10:32:55;16.50;99.90
26982;DHT22;14533;50.848;4.380;2022-10-31T10:35:29;16.70;99.90
26982;DHT22;14533;50.848;4.380;2022-10-31T10:38:25;16.80;99.90
26982;DHT22;14533;50.848;4.380;2022-10-31T10:40:48;16.70;99.90
26982;DHT22;14533;50.848;4.380;2022-10-31T10:43:19;16.60;99.90
26982;DHT22;14533;50.848;4.380;2022-10-31T10:46:03;16.50;99.90
26982;DHT22;14533;50.848;4.380;2022-10-31T10:49:17;16.60;99.90
26982;DHT22;14533;50.848;4.380;2022-10-31T10:51:46;16.80;99.90
26982;DHT22;14533;50.848;4.380;2022-10-31T10:57:11;17.20;99.90
26982;DHT22;14533;50.848;4.380;2022-10-31T10:59:40;17.20;99.90
26982;DHT22;14533;50.848;4.380;2022-10-31T11:02:25;17.30;99.90
26982;DHT22;14533;50.848;4.380;2022-10-31T11:04:55;17.30;99.90
26982;DHT22;14533;50.848;4.380;2022-10-31T11:07:21;17.20;99.90
26982;DHT22;14533;50.848;4.380;2022-10-31T11:09:47;17.20;99.90
26982;DHT22;14533;50.848;4.380;2022-10-31T11:12:24;17.30;99.90
26982;DHT22;14533;50.848;4.380;2022-10-31T11:14:59;17.60;99.90
26982;DHT22;14533;50.848;4.380;2022-10-31T11:17:37;17.80;99.90
26982;DHT22;14533;50.848;4.380;2022-10-31T11:22:43;17.90;99.90
26982;DHT22;14533;50.848;4.380;2022-10-31T11:27:57;17.70;99.90
26982;DHT22;14533;50.848;4.380;2022-10-31T11:30:23;17.70;99.90
26982;DHT22;14533;50.848;4.380;2022-10-31T11:32:50;17.70;99.90
26982;DHT22;14533;50.848;4.380;2022-10-31T11:35:20;17.70;99.90
26982;DHT22;14533;50.848;4.380;2022-10-31T11:37:49;17.60;99.90
26982;DHT22;14533;50.848;4.380;2022-10-31T11:40:24;17.70;99.90
26982;DHT22;14533;50.848;4.380;2022-10-31T11:42:52;17.80;99.90
26982;DHT22;14533;50.848;4.380;2022-10-31T11:45:32;17.80;99.90
26982;DHT22;14533;50.848;4.380;2022-10-31T11:48:00;17.90;99.90
26982;DHT22;14533;50.848;4.380;2022-10-31T11:50:39;17.90;99.90
26982;DHT22;14533;50.848;4.380;2022-10-31T11:53:16;17.90;99.90
26982;DHT22;14533;50.848;4.380;2022-10-31T11:55:42;17.80;99.90
26982;DHT22;14533;50.848;4.380;2022-10-31T11:58:20;17.80;99.90
26982;DHT22;14533;50.848;4.380;2022-10-31T12:00:52;17.90;99.90
26982;DHT22;14533;50.848;4.380;2022-10-31T12:08:34;18.10;99.90
26982;DHT22;14533;50.848;4.380;2022-10-31T12:26:53;18.90;99.90
26982;DHT22;14533;50.848;4.380;2022-10-31T12:40:29;19.20;99.90
26982;DHT22;14533;50.848;4.380;2022-10-31T12:45:56;19.40;99.90
26982;DHT22;14533;50.848;4.380;2022-10-31T12:51:40;19.60;99.90
26982;DHT22;14533;50.848;4.380;2022-10-31T12:57:06;19.90;99.90
26982;DHT22;14533;50.848;4.380;2022-10-31T12:59:44;19.80;99.90
26982;DHT22;14533;50.848;4.380;2022-10-31T13:02:22;20.20;99.90
26982;DHT22;14533;50.848;4.380;2022-10-31T13:05:03;20.10;99.90
26982;DHT22;14533;50.848;4.380;2022-10-31T13:07:33;20.00;99.90
26982;DHT22;14533;50.848;4.380;2022-10-31T13:12:34;20.00;99.90
26982;DHT22;14533;50.848;4.380;2022-10-31T13:15:15;20.20;99.90
26982;DHT22;14533;50.848;4.380;2022-10-31T13:17:48;20.10;99.90
26982;DHT22;14533;50.848;4.380;2022-10-31T13:22:48;19.90;99.90
26982;DHT22;14533;50.848;4.380;2022-10-31T13:25:33;20.00;99.90
26982;DHT22;14533;50.848;4.380;2022-10-31T13:28:04;20.30;99.90
26982;DHT22;14533;50.848;4.380;2022-10-31T13:30:37;20.70;99.90
26982;DHT22;14533;50.848;4.380;2022-10-31T13:33:14;20.80;99.90
26982;DHT22;14533;50.848;4.380;2022-10-31T13:41:49;21.00;99.90
26982;DHT22;14533;50.848;4.380;2022-10-31T13:46:50;20.80;99.90
26982;DHT22;14533;50.848;4.380;2022-10-31T13:52:22;20.10;99.90
26982;DHT22;14533;50.848;4.380;2022-10-31T13:54:50;20.10;99.90
26982;DHT22;14533;50.848;4.380;2022-10-31T13:57:41;20.10;99.90
26982;DHT22;14533;50.848;4.380;2022-10-31T14:02:54;20.20;99.90
26982;DHT22;14533;50.848;4.380;2022-10-31T14:05:27;20.20;99.90
26982;DHT22;14533;50.848;4.380;2022-10-31T14:07:56;20.20;99.90
26982;DHT22;14533;50.848;4.380;2022-10-31T14:10:30;20.20;99.90
26982;DHT22;14533;50.848;4.380;2022-10-31T14:13:21;20.30;99.90
26982;DHT22;14533;50.848;4.380;2022-10-31T14:18:33;20.20;99.90
26982;DHT22;14533;50.848;4.380;2022-10-31T14:20:59;20.20;99.90
26982;DHT22;14533;50.848;4.380;2022-10-31T14:31:42;20.00;99.90
26982;DHT22;14533;50.848;4.380;2022-10-31T14:36:46;19.90;99.90
26982;DHT22;14533;50.848;4.380;2022-10-31T14:39:26;19.80;99.90
26982;DHT22;14533;50.848;4.380;2022-10-31T14:42:31;19.90;99.90
26982;DHT22;14533;50.848;4.380;2022-10-31T14:55:54;19.90;99.90
26982;DHT22;14533;50.848;4.380;2022-10-31T14:58:33;20.00;99.90
26982;DHT22;14533;50.848;4.380;2022-10-31T15:01:01;19.90;99.90
26982;DHT22;14533;50.848;4.380;2022-10-31T15:03:39;19.70;99.90
26982;DHT22;14533;50.848;4.380;2022-10-31T15:06:15;19.70;99.90
26982;DHT22;14533;50.848;4.380;2022-10-31T15:08:49;19.50;99.90
26982;DHT22;14533;50.848;4.380;2022-10-31T15:11:24;19.40;99.90
26982;DHT22;14533;50.848;4.380;2022-10-31T15:13:57;19.30;99.90
26982;DHT22;14533;50.848;4.380;2022-10-31T15:16:27;19.20;99.90
26982;DHT22;14533;50.848;4.380;2022-10-31T15:18:58;19.10;99.90
26982;DHT22;14533;50.848;4.380;2022-10-31T15:21:26;19.10;99.90
26982;DHT22;14533;50.848;4.380;2022-10-31T15:23:57;19.00;99.90
26982;DHT22;14533;50.848;4.380;2022-10-31T15:26:33;19.00;99.90
26982;DHT22;14533;50.848;4.380;2022-10-31T15:29:03;18.90;99.90
26982;DHT22;14533;50.848;4.380;2022-10-31T15:31:29;18.90;99.90
26982;DHT22;14533;50.848;4.380;2022-10-31T15:34:01;18.90;99.90
26982;DHT22;14533;50.848;4.380;2022-10-31T15:36:28;18.80;99.90
26982;DHT22;14533;50.848;4.380;2022-10-31T15:38:56;18.70;99.90
26982;DHT22;14533;50.848;4.380;2022-10-31T15:41:32;18.70;99.90
26982;DHT22;14533;50.848;4.380;2022-10-31T15:47:12;18.60;99.90
26982;DHT22;14533;50.848;4.380;2022-10-31T15:49:47;18.50;99.90
26982;DHT22;14533;50.848;4.380;2022-10-31T15:52:42;18.50;99.90
26982;DHT22;14533;50.848;4.380;2022-10-31T15:57:40;18.30;99.90
26982;DHT22;14533;50.848;4.380;2022-10-31T16:00:20;18.30;99.90
26982;DHT22;14533;50.848;4.380;2022-10-31T16:02:46;18.20;99.90
26982;DHT22;14533;50.848;4.380;2022-10-31T16:05:17;18.10;99.90
26982;DHT22;14533;50.848;4.380;2022-10-31T16:07:50;18.10;99.90
26982;DHT22;14533;50.848;4.380;2022-10-31T16:10:26;18.10;99.90
26982;DHT22;14533;50.848;4.380;2022-10-31T16:12:53;18.10;99.90
26982;DHT22;14533;50.848;4.380;2022-10-31T16:15:20;18.10;99.90
26982;DHT22;14533;50.848;4.380;2022-10-31T16:17:49;18.10;99.90
26982;DHT22;14533;50.848;4.380;2022-10-31T16:20:23;18.10;99.90
26982;DHT22;14533;50.848;4.380;2022-10-31T16:22:51;18.00;99.90
26982;DHT22;14533;50.848;4.380;2022-10-31T16:27:51;17.90;99.90
26982;DHT22;14533;50.848;4.380;2022-10-31T16:30:29;17.90;99.90
26982;DHT22;14533;50.848;4.380;2022-10-31T16:32:57;17.90;99.90
26982;DHT22;14533;50.848;4.380;2022-10-31T16:35:35;18.00;99.90
26982;DHT22;14533;50.848;4.380;2022-10-31T16:38:07;18.00;99.90
26982;DHT22;14533;50.848;4.380;2022-10-31T16:40:35;18.00;99.90
26982;DHT22;14533;50.848;4.380;2022-10-31T16:43:07;18.00;99.90
26982;DHT22;14533;50.848;4.380;2022-10-31T16:45:34;18.00;99.90
26982;DHT22;14533;50.848;4.380;2022-10-31T16:48:06;17.90;99.90
26982;DHT22;14533;50.848;4.380;2022-10-31T16:50:33;17.80;99.90
26982;DHT22;14533;50.848;4.380;2022-10-31T16:52:59;17.80;99.90
26982;DHT22;14533;50.848;4.380;2022-10-31T16:55:24;17.70;99.90
26982;DHT22;14533;50.848;4.380;2022-10-31T16:57:52;17.70;99.90
26982;DHT22;14533;50.848;4.380;2022-10-31T17:00:20;17.70;99.90
26982;DHT22;14533;50.848;4.380;2022-10-31T17:02:48;17.60;99.90
26982;DHT22;14533;50.848;4.380;2022-10-31T17:05:16;17.60;99.90
26982;DHT22;14533;50.848;4.380;2022-10-31T17:07:42;17.60;99.90
26982;DHT22;14533;50.848;4.380;2022-10-31T17:10:09;17.60;99.90
26982;DHT22;14533;50.848;4.380;2022-10-31T17:12:36;17.60;99.90
26982;DHT22;14533;50.848;4.380;2022-10-31T17:15:04;17.60;99.90
26982;DHT22;14533;50.848;4.380;2022-10-31T17:17:31;17.60;99.90
26982;DHT22;14533;50.848;4.380;2022-10-31T17:20:18;17.60;99.90
26982;DHT22;14533;50.848;4.380;2022-10-31T17:22:48;17.70;99.90
26982;DHT22;14533;50.848;4.380;2022-10-31T17:25:19;17.70;99.90
26982;DHT22;14533;50.848;4.380;2022-10-31T17:27:49;17.60;99.90
26982;DHT22;14533;50.848;4.380;2022-10-31T17:30:20;17.60;99.90
26982;DHT22;14533;50.848;4.380;2022-10-31T17:32:47;17.70;99.90
26982;DHT22;14533;50.848;4.380;2022-10-31T17:35:14;17.80;99.90
26982;DHT22;14533;50.848;4.380;2022-10-31T17:37:43;17.80;99.90
26982;DHT22;14533;50.848;4.380;2022-10-31T17:40:13;17.80;99.90
26982;DHT22;14533;50.848;4.380;2022-10-31T17:42:40;17.80;99.90
26982;DHT22;14533;50.848;4.380;2022-10-31T17:45:08;17.70;99.90
26982;DHT22;14533;50.848;4.380;2022-10-31T17:47:35;17.70;99.90
26982;DHT22;14533;50.848;4.380;2022-10-31T17:50:02;17.70;99.90
26982;DHT22;14533;50.848;4.380;2022-10-31T17:52:27;17.60;99.90
26982;DHT22;14533;50.848;4.380;2022-10-31T17:54:53;17.60;99.90
26982;DHT22;14533;50.848;4.380;2022-10-31T17:57:18;17.60;99.90
26982;DHT22;14533;50.848;4.380;2022-10-31T17:59:44;17.60;99.90
26982;DHT22;14533;50.848;4.380;2022-10-31T18:02:10;17.50;99.90
26982;DHT22;14533;50.848;4.380;2022-10-31T18:04:37;17.50;99.90
26982;DHT22;14533;50.848;4.380;2022-10-31T18:07:03;17.60;99.90
26982;DHT22;14533;50.848;4.380;2022-10-31T18:09:30;17.60;99.90
26982;DHT22;14533;50.848;4.380;2022-10-31T18:11:56;17.50;99.90
26982;DHT22;14533;50.848;4.380;2022-10-31T18:14:22;17.60;99.90
26982;DHT22;14533;50.848;4.380;2022-10-31T18:16:48;17.60;99.90